DAL2841 KMSP-KFLL
Flight info
| Callsign | DAL2841 |
|---|---|
| Flight time | N/A |
| Altitude | 35000 |
| Route | ZMBRO7 ODI JOT VHP FLM HMV QUIWE/N0449F340 FISHO/N0448F350 Q93 GURGE/N0452F360 Q93 PRMUS CUUDA3 |
| Aircraft | A321/M-SDE3FGHIRWY/LB1 |
Departure
| Time | 2026-05-06 14:21 |
|---|---|
| Airport | Minneapolis–Saint Paul International Airport / Wold–Chamberlain Field (KMSP) |
Arrival
| Time | N/A |
|---|---|
| Airport | Fort Lauderdale Hollywood International Airport (KFLL) |
| Time | Latitude | Longitude | Altitude | Speed | Heading |
|---|---|---|---|---|---|
| 2026-05-06 13:49 | 44.88435 | -93.21608 | 825 ft | 0 kts | 178° |
| 2026-05-06 14:00 | 44.88456 | -93.21609 | 823 ft | 4 kts | 178° |
| 2026-05-06 14:00 | 44.88481 | -93.21610 | 824 ft | 2 kts | 178° |
| 2026-05-06 14:00 | 44.88503 | -93.21612 | 823 ft | 4 kts | 172° |
| 2026-05-06 14:01 | 44.88530 | -93.21617 | 823 ft | 4 kts | 182° |
| 2026-05-06 14:01 | 44.88549 | -93.21608 | 823 ft | 3 kts | 225° |
| 2026-05-06 14:01 | 44.88562 | -93.21590 | 825 ft | 0 kts | 225° |
| 2026-05-06 14:13 | 44.88554 | -93.21602 | 825 ft | 3 kts | 225° |
| 2026-05-06 14:14 | 44.88534 | -93.21630 | 826 ft | 5 kts | 225° |
| 2026-05-06 14:14 | 44.88501 | -93.21677 | 824 ft | 8 kts | 225° |
| 2026-05-06 14:14 | 44.88453 | -93.21744 | 825 ft | 11 kts | 225° |
| 2026-05-06 14:14 | 44.88391 | -93.21833 | 825 ft | 14 kts | 225° |
| 2026-05-06 14:15 | 44.88308 | -93.21935 | 825 ft | 17 kts | 214° |
| 2026-05-06 14:15 | 44.88204 | -93.22041 | 826 ft | 18 kts | 216° |
| 2026-05-06 14:15 | 44.88114 | -93.22152 | 823 ft | 16 kts | 225° |
| 2026-05-06 14:15 | 44.88091 | -93.22156 | 824 ft | 1 kts | 153° |
| 2026-05-06 14:16 | 44.88090 | -93.22151 | 826 ft | 1 kts | 118° |
| 2026-05-06 14:16 | 44.88048 | -93.22026 | 825 ft | 24 kts | 122° |
| 2026-05-06 14:16 | 44.87963 | -93.21828 | 824 ft | 23 kts | 121° |
| 2026-05-06 14:16 | 44.87882 | -93.21640 | 822 ft | 22 kts | 121° |
| 2026-05-06 14:17 | 44.87807 | -93.21467 | 824 ft | 20 kts | 121° |
| 2026-05-06 14:17 | 44.87738 | -93.21308 | 825 ft | 18 kts | 121° |
| 2026-05-06 14:17 | 44.87677 | -93.21168 | 824 ft | 16 kts | 122° |
| 2026-05-06 14:17 | 44.87623 | -93.21046 | 822 ft | 14 kts | 121° |
| 2026-05-06 14:18 | 44.87576 | -93.20933 | 825 ft | 13 kts | 121° |
| 2026-05-06 14:18 | 44.87531 | -93.20829 | 824 ft | 12 kts | 122° |
| 2026-05-06 14:18 | 44.87461 | -93.20702 | 825 ft | 20 kts | 144° |
| 2026-05-06 14:18 | 44.87367 | -93.20588 | 825 ft | 17 kts | 121° |
| 2026-05-06 14:19 | 44.87306 | -93.20458 | 825 ft | 15 kts | 122° |
| 2026-05-06 14:19 | 44.87255 | -93.20344 | 825 ft | 13 kts | 122° |
| 2026-05-06 14:19 | 44.87237 | -93.20251 | 825 ft | 9 kts | 62° |
| 2026-05-06 14:19 | 44.87300 | -93.20185 | 826 ft | 12 kts | 30° |
| 2026-05-06 14:20 | 44.87369 | -93.20165 | 827 ft | 9 kts | 328° |
| 2026-05-06 14:20 | 44.87419 | -93.20275 | 825 ft | 25 kts | 301° |
| 2026-05-06 14:20 | 44.87638 | -93.20783 | 825 ft | 95 kts | 301° |
| 2026-05-06 14:20 | 44.88085 | -93.21814 | 823 ft | 149 kts | 301° |
| 2026-05-06 14:21 | 44.88678 | -93.23183 | 1143 ft | 169 kts | 302° |
| 2026-05-06 14:21 | 44.89263 | -93.24622 | 1877 ft | 170 kts | 295° |
| 2026-05-06 14:21 | 44.89462 | -93.26267 | 2570 ft | 177 kts | 269° |
| 2026-05-06 14:21 | 44.89133 | -93.28041 | 2754 ft | 200 kts | 252° |
| 2026-05-06 14:22 | 44.88611 | -93.29960 | 2983 ft | 219 kts | 252° |
| 2026-05-06 14:22 | 44.88236 | -93.31350 | 3071 ft | 238 kts | 252° |
| 2026-05-06 14:22 | 44.87427 | -93.34349 | 3905 ft | 251 kts | 252° |
| 2026-05-06 14:22 | 44.87007 | -93.35876 | 4474 ft | 252 kts | 250° |
| 2026-05-06 14:23 | 44.86011 | -93.37941 | 5305 ft | 261 kts | 226° |
| 2026-05-06 14:23 | 44.84572 | -93.39538 | 6163 ft | 265 kts | 219° |
| 2026-05-06 14:23 | 44.82924 | -93.40769 | 6948 ft | 274 kts | 200° |
| 2026-05-06 14:23 | 44.81026 | -93.40977 | 7661 ft | 285 kts | 173° |
| 2026-05-06 14:24 | 44.79172 | -93.39892 | 8346 ft | 295 kts | 143° |
| 2026-05-06 14:24 | 44.77820 | -93.37691 | 9040 ft | 300 kts | 123° |
| 2026-05-06 14:24 | 44.76684 | -93.35237 | 9755 ft | 304 kts | 123° |
| 2026-05-06 14:24 | 44.75524 | -93.32699 | 10311 ft | 314 kts | 123° |
| 2026-05-06 14:25 | 44.74297 | -93.30010 | 10459 ft | 337 kts | 123° |
| 2026-05-06 14:25 | 44.72984 | -93.27155 | 10661 ft | 356 kts | 123° |
| 2026-05-06 14:25 | 44.71621 | -93.24210 | 11200 ft | 362 kts | 123° |
| 2026-05-06 14:25 | 44.70250 | -93.21263 | 11841 ft | 366 kts | 123° |
| 2026-05-06 14:26 | 44.68838 | -93.18237 | 12495 ft | 369 kts | 124° |
| 2026-05-06 14:26 | 44.67421 | -93.15201 | 13147 ft | 373 kts | 124° |
| 2026-05-06 14:26 | 44.65992 | -93.12141 | 13802 ft | 376 kts | 124° |
| 2026-05-06 14:26 | 44.64568 | -93.09094 | 14372 ft | 380 kts | 124° |
| 2026-05-06 14:27 | 44.63101 | -93.05961 | 14950 ft | 383 kts | 124° |
| 2026-05-06 14:27 | 44.61625 | -93.02815 | 15525 ft | 387 kts | 124° |
| 2026-05-06 14:27 | 44.60153 | -92.99676 | 16090 ft | 390 kts | 125° |
| 2026-05-06 14:27 | 44.58648 | -92.96463 | 16641 ft | 394 kts | 125° |
| 2026-05-06 14:28 | 44.57130 | -92.93236 | 17185 ft | 398 kts | 126° |
| 2026-05-06 14:28 | 44.55596 | -92.89981 | 17707 ft | 402 kts | 126° |
| 2026-05-06 14:28 | 44.54046 | -92.86698 | 18239 ft | 406 kts | 126° |
| 2026-05-06 14:28 | 44.52499 | -92.83423 | 18706 ft | 409 kts | 126° |
| 2026-05-06 14:29 | 44.50922 | -92.80088 | 19148 ft | 412 kts | 126° |
| 2026-05-06 14:29 | 44.49332 | -92.76731 | 19603 ft | 415 kts | 126° |
| 2026-05-06 14:29 | 44.47724 | -92.73330 | 20054 ft | 418 kts | 126° |
| 2026-05-06 14:29 | 44.46114 | -92.69922 | 20503 ft | 421 kts | 127° |
| 2026-05-06 14:30 | 44.44489 | -92.66490 | 20947 ft | 424 kts | 127° |
| 2026-05-06 14:30 | 44.42847 | -92.63036 | 21389 ft | 427 kts | 127° |
| 2026-05-06 14:30 | 44.41217 | -92.59616 | 21822 ft | 429 kts | 127° |
| 2026-05-06 14:30 | 44.39547 | -92.56122 | 22254 ft | 432 kts | 127° |
| 2026-05-06 14:31 | 44.37883 | -92.52641 | 22628 ft | 436 kts | 128° |
| 2026-05-06 14:31 | 44.36172 | -92.49058 | 23030 ft | 439 kts | 128° |
| 2026-05-06 14:31 | 44.34474 | -92.45498 | 23437 ft | 442 kts | 128° |
| 2026-05-06 14:31 | 44.32805 | -92.41911 | 23799 ft | 446 kts | 126° |
| 2026-05-06 14:32 | 44.31167 | -92.38202 | 24122 ft | 449 kts | 125° |
| 2026-05-06 14:32 | 44.29560 | -92.34437 | 24443 ft | 452 kts | 124° |
| 2026-05-06 14:32 | 44.27983 | -92.30686 | 24755 ft | 455 kts | 124° |
| 2026-05-06 14:32 | 44.26377 | -92.26866 | 25049 ft | 458 kts | 125° |
| 2026-05-06 14:33 | 44.24750 | -92.23027 | 25358 ft | 461 kts | 126° |
| 2026-05-06 14:33 | 44.23093 | -92.19165 | 25648 ft | 463 kts | 126° |
| 2026-05-06 14:33 | 44.21414 | -92.15300 | 25950 ft | 466 kts | 126° |
| 2026-05-06 14:33 | 44.19739 | -92.11477 | 26186 ft | 469 kts | 127° |
| 2026-05-06 14:34 | 44.18024 | -92.07572 | 26437 ft | 473 kts | 127° |
| 2026-05-06 14:34 | 44.16302 | -92.03647 | 26710 ft | 476 kts | 127° |
| 2026-05-06 14:34 | 44.14573 | -91.99693 | 26987 ft | 479 kts | 127° |
| 2026-05-06 14:34 | 44.12854 | -91.95761 | 27270 ft | 482 kts | 128° |
| 2026-05-06 14:35 | 44.11102 | -91.91753 | 27528 ft | 484 kts | 128° |
| 2026-05-06 14:35 | 44.09344 | -91.87736 | 27774 ft | 488 kts | 128° |
| 2026-05-06 14:35 | 44.07568 | -91.83686 | 28053 ft | 491 kts | 128° |
| 2026-05-06 14:35 | 44.05781 | -91.79619 | 28297 ft | 493 kts | 128° |
| 2026-05-06 14:36 | 44.03986 | -91.75542 | 28543 ft | 496 kts | 129° |
| 2026-05-06 14:36 | 44.02202 | -91.71503 | 28778 ft | 498 kts | 129° |
| 2026-05-06 14:36 | 44.00376 | -91.67377 | 28906 ft | 502 kts | 130° |
| 2026-05-06 14:36 | 43.98535 | -91.63226 | 29083 ft | 506 kts | 130° |
| 2026-05-06 14:37 | 43.96683 | -91.59046 | 29309 ft | 509 kts | 130° |
| 2026-05-06 14:37 | 43.94818 | -91.54841 | 29535 ft | 511 kts | 130° |
| 2026-05-06 14:37 | 43.92971 | -91.50684 | 29721 ft | 514 kts | 131° |
| 2026-05-06 14:37 | 43.90948 | -91.46635 | 29940 ft | 506 kts | 139° |
| 2026-05-06 14:38 | 43.88615 | -91.43035 | 30158 ft | 497 kts | 146° |
| 2026-05-06 14:38 | 43.86180 | -91.39624 | 30376 ft | 499 kts | 146° |
| 2026-05-06 14:38 | 43.83740 | -91.36208 | 30663 ft | 498 kts | 146° |
| 2026-05-06 14:38 | 43.81300 | -91.32793 | 30877 ft | 498 kts | 146° |
| 2026-05-06 14:39 | 43.78890 | -91.29421 | 31114 ft | 499 kts | 146° |
| 2026-05-06 14:39 | 43.76445 | -91.25998 | 31385 ft | 499 kts | 146° |
| 2026-05-06 14:39 | 43.73997 | -91.22574 | 31661 ft | 499 kts | 146° |
| 2026-05-06 14:39 | 43.71560 | -91.19172 | 31930 ft | 498 kts | 145° |
| 2026-05-06 14:40 | 43.69116 | -91.15767 | 32189 ft | 499 kts | 145° |
| 2026-05-06 14:40 | 43.66672 | -91.12357 | 32444 ft | 499 kts | 145° |
| 2026-05-06 14:40 | 43.64230 | -91.08956 | 32712 ft | 499 kts | 145° |
| 2026-05-06 14:40 | 43.61785 | -91.05556 | 32933 ft | 499 kts | 145° |
| 2026-05-06 14:41 | 43.59336 | -91.02158 | 33172 ft | 499 kts | 145° |
| 2026-05-06 14:41 | 43.56880 | -90.98760 | 33429 ft | 500 kts | 145° |
| 2026-05-06 14:41 | 43.54454 | -90.95408 | 33672 ft | 500 kts | 145° |
| 2026-05-06 14:41 | 43.51996 | -90.92015 | 33930 ft | 500 kts | 145° |
| 2026-05-06 14:42 | 43.49533 | -90.88616 | 34165 ft | 500 kts | 144° |
| 2026-05-06 14:42 | 43.47061 | -90.85202 | 34390 ft | 500 kts | 144° |
| 2026-05-06 14:42 | 43.44600 | -90.81805 | 34591 ft | 500 kts | 144° |
| 2026-05-06 14:42 | 43.42165 | -90.78447 | 34767 ft | 500 kts | 144° |
| 2026-05-06 14:43 | 43.39706 | -90.75065 | 34947 ft | 500 kts | 144° |
| 2026-05-06 14:43 | 43.37267 | -90.71721 | 35042 ft | 499 kts | 144° |
| 2026-05-06 14:43 | 43.32365 | -90.65020 | 35074 ft | 496 kts | 144° |
| 2026-05-06 14:44 | 43.27483 | -90.58344 | 35066 ft | 495 kts | 144° |
| 2026-05-06 14:45 | 43.20170 | -90.48381 | 35069 ft | 494 kts | 144° |
| 2026-05-06 14:45 | 43.15297 | -90.41767 | 35046 ft | 494 kts | 144° |
| 2026-05-06 14:46 | 43.10406 | -90.35138 | 35034 ft | 494 kts | 144° |
| 2026-05-06 14:46 | 43.05517 | -90.28524 | 35035 ft | 494 kts | 144° |
| 2026-05-06 14:47 | 43.00627 | -90.21924 | 35013 ft | 494 kts | 144° |
| 2026-05-06 14:47 | 42.95743 | -90.15355 | 35021 ft | 494 kts | 144° |
| 2026-05-06 14:48 | 42.90861 | -90.08788 | 35014 ft | 494 kts | 144° |
| 2026-05-06 14:48 | 42.85959 | -90.02210 | 35028 ft | 494 kts | 145° |
| 2026-05-06 14:49 | 42.81052 | -89.95664 | 35010 ft | 494 kts | 145° |
| 2026-05-06 14:49 | 42.76162 | -89.89159 | 35027 ft | 493 kts | 145° |
| 2026-05-06 14:50 | 42.71240 | -89.82618 | 35036 ft | 493 kts | 145° |
| 2026-05-06 14:50 | 42.66353 | -89.76127 | 35040 ft | 493 kts | 145° |
| 2026-05-06 14:51 | 42.61435 | -89.69609 | 35040 ft | 493 kts | 145° |
| 2026-05-06 14:51 | 42.56515 | -89.63111 | 35013 ft | 493 kts | 145° |
| 2026-05-06 14:52 | 42.51617 | -89.56660 | 35023 ft | 493 kts | 145° |
| 2026-05-06 14:52 | 42.46680 | -89.50166 | 35028 ft | 493 kts | 145° |
| 2026-05-06 14:53 | 42.41769 | -89.43732 | 35051 ft | 493 kts | 145° |
| 2026-05-06 14:53 | 42.36823 | -89.37261 | 35020 ft | 494 kts | 146° |
| 2026-05-06 14:54 | 42.31875 | -89.30789 | 35027 ft | 494 kts | 146° |
| 2026-05-06 14:54 | 42.26941 | -89.24364 | 35044 ft | 495 kts | 146° |
| 2026-05-06 14:55 | 42.21978 | -89.17912 | 35037 ft | 495 kts | 146° |
| 2026-05-06 14:55 | 42.17001 | -89.11453 | 35021 ft | 497 kts | 147° |
| 2026-05-06 14:56 | 42.12031 | -89.05027 | 35032 ft | 498 kts | 147° |
| 2026-05-06 14:56 | 42.07025 | -88.98573 | 35044 ft | 498 kts | 147° |
| 2026-05-06 14:57 | 42.02012 | -88.92125 | 35048 ft | 498 kts | 147° |
| 2026-05-06 14:57 | 41.96996 | -88.85683 | 35020 ft | 498 kts | 147° |
| 2026-05-06 14:58 | 41.91970 | -88.79232 | 35024 ft | 500 kts | 147° |
| 2026-05-06 14:58 | 41.86959 | -88.72833 | 35030 ft | 501 kts | 148° |
| 2026-05-06 14:59 | 41.81901 | -88.66386 | 35037 ft | 501 kts | 147° |
| 2026-05-06 14:59 | 41.76844 | -88.59938 | 35029 ft | 502 kts | 147° |
| 2026-05-06 15:00 | 41.71783 | -88.53499 | 35037 ft | 507 kts | 149° |
| 2026-05-06 15:00 | 41.66650 | -88.46999 | 35042 ft | 508 kts | 149° |
| 2026-05-06 15:01 | 41.61486 | -88.40478 | 35049 ft | 508 kts | 148° |
| 2026-05-06 15:01 | 41.56364 | -88.34018 | 35058 ft | 508 kts | 149° |
| 2026-05-06 15:02 | 41.51204 | -88.27663 | 35012 ft | 505 kts | 152° |
| 2026-05-06 15:02 | 41.45903 | -88.21529 | 35000 ft | 504 kts | 153° |
| 2026-05-06 15:03 | 41.40550 | -88.15447 | 35009 ft | 505 kts | 153° |
| 2026-05-06 15:03 | 41.35253 | -88.09356 | 35016 ft | 506 kts | 153° |
| 2026-05-06 15:04 | 41.29940 | -88.03184 | 35042 ft | 509 kts | 153° |
| 2026-05-06 15:04 | 41.24580 | -87.96980 | 35062 ft | 511 kts | 153° |
| 2026-05-06 15:05 | 41.19238 | -87.90825 | 35069 ft | 510 kts | 153° |
| 2026-05-06 15:05 | 41.13869 | -87.84652 | 35071 ft | 509 kts | 153° |
| 2026-05-06 15:06 | 41.08503 | -87.78493 | 35031 ft | 509 kts | 154° |
| 2026-05-06 15:06 | 41.03142 | -87.72358 | 35037 ft | 509 kts | 154° |
| 2026-05-06 15:07 | 40.97805 | -87.66275 | 35013 ft | 509 kts | 154° |
| 2026-05-06 15:07 | 40.92425 | -87.60148 | 35021 ft | 508 kts | 154° |
| 2026-05-06 15:08 | 40.87072 | -87.54072 | 34976 ft | 508 kts | 154° |
| 2026-05-06 15:08 | 40.81691 | -87.47972 | 35023 ft | 510 kts | 154° |
| 2026-05-06 15:09 | 40.76335 | -87.41912 | 35029 ft | 509 kts | 154° |
| 2026-05-06 15:09 | 40.70946 | -87.35827 | 35023 ft | 509 kts | 154° |
| 2026-05-06 15:10 | 40.65590 | -87.29786 | 34999 ft | 508 kts | 154° |
| 2026-05-06 15:10 | 40.60192 | -87.23732 | 35005 ft | 508 kts | 154° |
| 2026-05-06 15:11 | 40.54837 | -87.17733 | 35016 ft | 508 kts | 154° |
| 2026-05-06 15:11 | 40.49470 | -87.11727 | 35019 ft | 508 kts | 154° |
| 2026-05-06 15:12 | 40.44113 | -87.05740 | 35023 ft | 507 kts | 154° |
| 2026-05-06 15:12 | 40.38736 | -86.99748 | 35020 ft | 508 kts | 155° |
| 2026-05-06 15:13 | 40.33318 | -86.93733 | 35015 ft | 508 kts | 155° |
| 2026-05-06 15:13 | 40.27945 | -86.87769 | 35019 ft | 507 kts | 155° |
| 2026-05-06 15:14 | 40.22587 | -86.81834 | 35015 ft | 507 kts | 155° |
| 2026-05-06 15:14 | 40.17191 | -86.75874 | 35008 ft | 507 kts | 155° |
| 2026-05-06 15:15 | 40.11784 | -86.69922 | 35025 ft | 507 kts | 155° |
| 2026-05-06 15:15 | 40.06422 | -86.64023 | 35029 ft | 506 kts | 155° |
| 2026-05-06 15:16 | 40.01029 | -86.58096 | 35027 ft | 506 kts | 155° |
| 2026-05-06 15:16 | 39.95681 | -86.52238 | 35010 ft | 504 kts | 155° |
| 2026-05-06 15:17 | 39.90285 | -86.46350 | 35029 ft | 505 kts | 155° |
| 2026-05-06 15:17 | 39.84919 | -86.40507 | 35036 ft | 504 kts | 155° |
| 2026-05-06 15:17 | 39.82266 | -86.37438 | 35034 ft | 516 kts | 148° |
| 2026-05-06 15:18 | 39.79864 | -86.33841 | 35041 ft | 533 kts | 139° |
| 2026-05-06 15:18 | 39.75560 | -86.25959 | 35034 ft | 537 kts | 138° |
| 2026-05-06 15:19 | 39.71214 | -86.18060 | 35006 ft | 536 kts | 138° |
| 2026-05-06 15:19 | 39.66874 | -86.10245 | 35009 ft | 536 kts | 138° |
| 2026-05-06 15:20 | 39.62513 | -86.02395 | 35017 ft | 536 kts | 138° |
| 2026-05-06 15:20 | 39.58148 | -85.94518 | 35012 ft | 537 kts | 138° |
| 2026-05-06 15:21 | 39.53813 | -85.86709 | 35021 ft | 536 kts | 138° |
| 2026-05-06 15:21 | 39.49433 | -85.78857 | 34970 ft | 535 kts | 138° |
| 2026-05-06 15:22 | 39.45068 | -85.71056 | 35034 ft | 536 kts | 138° |
| 2026-05-06 15:22 | 39.41418 | -85.64548 | 35031 ft | 536 kts | 138° |
| 2026-05-06 15:23 | 39.36321 | -85.55464 | 35019 ft | 535 kts | 139° |
| 2026-05-06 15:23 | 39.32688 | -85.49018 | 35013 ft | 535 kts | 139° |
| 2026-05-06 15:24 | 39.28290 | -85.41241 | 34985 ft | 535 kts | 139° |
| 2026-05-06 15:24 | 39.23920 | -85.33532 | 34963 ft | 533 kts | 139° |
| 2026-05-06 15:25 | 39.19543 | -85.25800 | 35007 ft | 533 kts | 139° |
| 2026-05-06 15:25 | 39.15151 | -85.18077 | 35008 ft | 533 kts | 139° |
| 2026-05-06 15:26 | 39.10777 | -85.10406 | 34991 ft | 533 kts | 139° |
| 2026-05-06 15:26 | 39.06386 | -85.02722 | 34974 ft | 533 kts | 139° |
| 2026-05-06 15:27 | 39.02009 | -84.95072 | 34980 ft | 533 kts | 139° |
| 2026-05-06 15:27 | 38.97600 | -84.87385 | 34969 ft | 533 kts | 139° |
| 2026-05-06 15:28 | 38.93186 | -84.79707 | 34980 ft | 533 kts | 139° |
| 2026-05-06 15:28 | 38.88766 | -84.72044 | 34983 ft | 533 kts | 139° |
| 2026-05-06 15:29 | 38.84369 | -84.64443 | 34954 ft | 532 kts | 138° |
| 2026-05-06 15:29 | 38.79937 | -84.56805 | 34953 ft | 533 kts | 138° |
| 2026-05-06 15:30 | 38.75529 | -84.49221 | 34919 ft | 533 kts | 138° |
| 2026-05-06 15:30 | 38.71081 | -84.41585 | 34968 ft | 534 kts | 138° |
| 2026-05-06 15:31 | 38.66624 | -84.33993 | 34979 ft | 530 kts | 141° |
| 2026-05-06 15:31 | 38.64218 | -84.30571 | 34981 ft | 516 kts | 149° |
| 2026-05-06 15:31 | 38.61558 | -84.27573 | 34964 ft | 503 kts | 155° |
| 2026-05-06 15:32 | 38.53354 | -84.19206 | 34980 ft | 502 kts | 155° |
| 2026-05-06 15:32 | 38.47930 | -84.13682 | 34962 ft | 501 kts | 155° |
| 2026-05-06 15:33 | 38.42472 | -84.08116 | 34975 ft | 501 kts | 155° |
| 2026-05-06 15:33 | 38.37022 | -84.02585 | 34980 ft | 500 kts | 155° |
| 2026-05-06 15:34 | 38.31574 | -83.97071 | 34989 ft | 500 kts | 155° |
| 2026-05-06 15:34 | 38.26159 | -83.91591 | 35000 ft | 500 kts | 155° |
| 2026-05-06 15:35 | 38.20713 | -83.86082 | 34993 ft | 499 kts | 155° |
| 2026-05-06 15:35 | 38.15269 | -83.80598 | 35001 ft | 498 kts | 155° |
| 2026-05-06 15:36 | 38.09855 | -83.75153 | 34964 ft | 498 kts | 155° |
| 2026-05-06 15:36 | 38.04411 | -83.69691 | 34966 ft | 498 kts | 155° |
| 2026-05-06 15:37 | 37.98997 | -83.64267 | 34928 ft | 498 kts | 155° |
| 2026-05-06 15:37 | 37.93569 | -83.58828 | 34934 ft | 498 kts | 155° |
| 2026-05-06 15:38 | 37.88129 | -83.53392 | 34926 ft | 497 kts | 155° |
| 2026-05-06 15:38 | 37.82713 | -83.48004 | 34924 ft | 497 kts | 155° |
| 2026-05-06 15:39 | 37.77268 | -83.42595 | 34936 ft | 497 kts | 154° |
| 2026-05-06 15:39 | 37.71817 | -83.37191 | 34910 ft | 499 kts | 154° |
| 2026-05-06 15:40 | 37.66372 | -83.31798 | 34927 ft | 500 kts | 154° |
| 2026-05-06 15:40 | 37.60871 | -83.26351 | 34935 ft | 501 kts | 154° |
| 2026-05-06 15:41 | 37.55401 | -83.20947 | 34941 ft | 501 kts | 154° |
| 2026-05-06 15:41 | 37.49906 | -83.15557 | 34907 ft | 500 kts | 154° |
| 2026-05-06 15:42 | 37.44426 | -83.10180 | 34959 ft | 498 kts | 154° |
| 2026-05-06 15:42 | 37.38968 | -83.04817 | 34957 ft | 495 kts | 154° |
| 2026-05-06 15:43 | 37.33558 | -82.99515 | 34947 ft | 495 kts | 154° |
| 2026-05-06 15:43 | 37.28122 | -82.94195 | 34936 ft | 495 kts | 154° |
| 2026-05-06 15:44 | 37.22714 | -82.88920 | 34911 ft | 493 kts | 153° |
| 2026-05-06 15:44 | 37.17319 | -82.83678 | 34951 ft | 491 kts | 153° |
| 2026-05-06 15:45 | 37.11901 | -82.78416 | 34974 ft | 491 kts | 153° |
| 2026-05-06 15:45 | 37.06500 | -82.73181 | 34992 ft | 490 kts | 153° |
| 2026-05-06 15:46 | 37.01144 | -82.67993 | 35018 ft | 490 kts | 153° |
| 2026-05-06 15:46 | 36.95747 | -82.62773 | 34990 ft | 491 kts | 153° |
| 2026-05-06 15:47 | 36.90356 | -82.57573 | 35003 ft | 493 kts | 153° |
| 2026-05-06 15:47 | 36.84919 | -82.52336 | 34982 ft | 493 kts | 153° |
| 2026-05-06 15:48 | 36.79509 | -82.47134 | 34923 ft | 493 kts | 153° |
| 2026-05-06 15:48 | 36.74043 | -82.41900 | 34919 ft | 494 kts | 152° |
| 2026-05-06 15:49 | 36.68614 | -82.36712 | 34961 ft | 494 kts | 152° |
| 2026-05-06 15:49 | 36.63160 | -82.31498 | 34986 ft | 494 kts | 152° |
| 2026-05-06 15:50 | 36.57698 | -82.26276 | 35001 ft | 494 kts | 152° |
| 2026-05-06 15:50 | 36.52275 | -82.21097 | 34998 ft | 494 kts | 152° |
| 2026-05-06 15:51 | 36.46779 | -82.15966 | 34963 ft | 487 kts | 158° |
| 2026-05-06 15:51 | 36.43865 | -82.13912 | 34967 ft | 475 kts | 166° |
| 2026-05-06 15:51 | 36.40877 | -82.12409 | 34961 ft | 462 kts | 174° |
| 2026-05-06 15:52 | 36.37811 | -82.11411 | 34960 ft | 451 kts | 180° |
| 2026-05-06 15:52 | 36.34732 | -82.10624 | 34969 ft | 452 kts | 180° |
| 2026-05-06 15:52 | 36.28559 | -82.09036 | 34950 ft | 453 kts | 180° |
| 2026-05-06 15:53 | 36.22385 | -82.07436 | 34920 ft | 453 kts | 180° |